S73 Hermelin — DRCG — position and weather

sailwx.info

Track history (hours):
 
Tides and Currents Weather Stations Pressure Air Temp Water Temp Dewpoint Dewpoint Depression Visibility Wind Speed Wind Dir Waves Ship Positions

S73 Hermelin

Last reported at 2015-Feb-18 17:33 UTC. Time now 2015-Mar-02 03:40 UTC.
Position N 54°10' E 012°07'.
Warning: this ship's position is 11 days out of date.

Length 58 m.

Type: Military. MMSI: 211210610.

Date/timePositionNaut miles runAvg speedWind from/ knotsBaromVisibWave heightAir tempDewpointWater temp
2015-Feb-18 17:33N 54°10' E 012°07'2120.8
2015-Feb-18 16:33N 54°23' E 011°40'4131.0
2015-Feb-18 15:14N 54°32' E 010°31'1218.0
2015-Feb-18 14:34N 54°26' E 010°13'0 0.3
2015-Feb-18 13:34N 54°26' E 010°12'0 0.4
2015-Feb-18 12:33N 54°26' E 010°11'0 0.4
2015-Feb-18 11:33N 54°26' E 010°11'5 5.1
2015-Feb-18 10:34N 54°28' E 010°19'8 3.8
2015-Feb-18 08:28N 54°29' E 010°33'1111.7
2015-Feb-18 07:34N 54°27' E 010°15'6 0.4
2015-Feb-17 14:16N 54°21' E 010°09'4 5.3
2015-Feb-17 13:34N 54°24' E 010°12'1 0.5
2015-Feb-17 12:33N 54°25' E 010°13'4 4.0
2015-Feb-17 11:31N 54°21' E 010°09'1 0.5
2015-Feb-17 10:34N 54°21' E 010°10'3 2.8
2015-Feb-17 09:33N 54°24' E 010°12'1 0.7
2015-Feb-17 08:34N 54°24' E 010°12'3123.7
2015-Feb-17 07:15N 54°36' E 011°01'2231.0
2015-Feb-17 06:34N 54°27' E 011°35'  
Track history (hours):
 
Tides and Currents Weather Stations Pressure Air Temp Water Temp Dewpoint Dewpoint Depression Visibility Wind Speed Wind Dir Waves Ship Positions

S73 Hermelin

Last reported at 2015-Feb-18 17:33 UTC. Time now 2015-Mar-02 03:40 UTC.
Position N 54°10' E 012°07'.
Warning: this ship's position is 11 days out of date.

Length 58 m.

Type: Military. MMSI: 211210610.

Date/timePositionNaut miles runAvg speedWind from/ knotsBaromVisibWave heightAir tempDewpointWater temp
2015-Feb-18 17:33N 54°10' E 012°07'2120.8
2015-Feb-18 16:33N 54°23' E 011°40'4131.0
2015-Feb-18 15:14N 54°32' E 010°31'1218.0
2015-Feb-18 14:34N 54°26' E 010°13'0 0.3
2015-Feb-18 13:34N 54°26' E 010°12'0 0.4
2015-Feb-18 12:33N 54°26' E 010°11'0 0.4
2015-Feb-18 11:33N 54°26' E 010°11'5 5.1
2015-Feb-18 10:34N 54°28' E 010°19'8 3.8
2015-Feb-18 08:28N 54°29' E 010°33'1111.7
2015-Feb-18 07:34N 54°27' E 010°15'6 0.4
2015-Feb-17 14:16N 54°21' E 010°09'4 5.3
2015-Feb-17 13:34N 54°24' E 010°12'1 0.5
2015-Feb-17 12:33N 54°25' E 010°13'4 4.0
2015-Feb-17 11:31N 54°21' E 010°09'1 0.5
2015-Feb-17 10:34N 54°21' E 010°10'3 2.8
2015-Feb-17 09:33N 54°24' E 010°12'1 0.7
2015-Feb-17 08:34N 54°24' E 010°12'3123.7
2015-Feb-17 07:15N 54°36' E 011°01'2231.0
2015-Feb-17 06:34N 54°27' E 011°35'  

Dump ship's entire track history